^^
Station Historical Data
Daily Summary for June 10, 2017 Units:  English    Metric   Both
« Previous Day
Next Day »
Daily Weekly Monthly Yearly Custom
  High: Low: Average:
Temperature: 85.2 °F 57.1 °F 74 °F
Dew Point: 61.6 °F 52.7 °F 58.1 °F
Humidity: 90% 43% 60%
Wind Speed: 7.0mph 0.0mph 2mph
Wind Gust: 20.0mph - -
Wind- - SSW
Pressure: 30.02 in 29.89 in -
Precipitation: 0.00 in    
Historical Graphs
 
 
Tabular Data for June 10, 2017
Time Temperature Dew Point Pressure Wind Wind Speed Wind Gust Humidity Rainfall Rate (Hourly) Conditions
00:00 63.9 °F 54.3 °F 29.89 in Calm     71% 0.00 in CLR
00:15 64.8 °F 53.6 °F 29.89 in Calm     67% 0.00 in CLR
00:30 65.2 °F 53.5 °F 29.89 in Calm   1.0 mph 66% 0.00 in CLR
00:45 66.1 °F 53.6 °F 29.90 in Calm   2.0 mph 64% 0.00 in CLR
01:00 66.3 °F 53.3 °F 29.90 in Calm   2.0 mph 63% 0.00 in CLR
02:15 62.8 °F 53.3 °F 29.91 in Calm   3.0 mph 71% 0.00 in CLR
02:30 62.3 °F 52.7 °F 29.91 in Calm     71% 0.00 in CLR
02:45 61.3 °F 52.9 °F 29.92 in Calm     74% 0.00 in CLR
03:00 61.8 °F 53.1 °F 29.92 in Calm     73% 0.00 in CLR
03:15 61.7 °F 53.0 °F 29.92 in Calm     73% 0.00 in CLR
03:30 60.7 °F 52.7 °F 29.92 in Calm     75% 0.00 in CLR
03:45 59.6 °F 52.7 °F 29.92 in Calm     78% 0.00 in CLR
04:00 59.0 °F 53.2 °F 29.92 in Calm     81% 0.00 in CLR
04:15 58.8 °F 53.3 °F 29.92 in Calm     82% 0.00 in CLR
04:30 58.0 °F 52.9 °F 29.92 in Calm     83% 0.00 in CLR
04:45 57.9 °F 53.4 °F 29.92 in Calm     85% 0.00 in CLR
05:00 57.6 °F 53.8 °F 29.93 in Calm     87% 0.00 in CLR
05:15 57.3 °F 53.8 °F 29.93 in Calm     88% 0.00 in CLR
05:30 57.1 °F 53.9 °F 29.94 in Calm     89% 0.00 in CLR
05:45 57.4 °F 54.5 °F 29.94 in Calm     90% 0.00 in CLR
06:00 58.4 °F 55.5 °F 29.95 in Calm   1.0 mph 90% 0.00 in CLR
06:15 59.2 °F 55.0 °F 29.95 in Calm   1.0 mph 86% 0.00 in CLR
06:30 59.9 °F 54.4 °F 29.95 in Calm   3.0 mph 82% 0.00 in CLR
06:45 60.3 °F 54.7 °F 29.96 in Calm   1.0 mph 82% 0.00 in CLR
07:00 60.4 °F 55.2 °F 29.96 in Calm     83% 0.00 in CLR
07:15 61.0 °F 55.5 °F 29.97 in Calm     82% 0.00 in CLR
07:30 62.4 °F 56.5 °F 29.97 in Calm   1.0 mph 81% 0.00 in CLR
07:45 64.0 °F 58.1 °F 29.99 in Calm   2.0 mph 81% 0.00 in CLR
08:00 65.6 °F 57.9 °F 30.00 in SSW 2.0 mph 6.0 mph 76% 0.00 in CLR
08:15 66.8 °F 57.5 °F 30.00 in SSW 2.0 mph 7.0 mph 72% 0.00 in CLR
08:30 69.2 °F 56.9 °F 30.00 in SSE 1.0 mph 7.0 mph 65% 0.00 in CLR
08:45 72.2 °F 57.1 °F 30.00 in SSE 1.0 mph 2.0 mph 59% 0.00 in CLR
09:00 73.0 °F 57.3 °F 30.01 in WSW 1.0 mph 7.0 mph 58% 0.00 in CLR
09:15 74.0 °F 58.3 °F 30.01 in WSW 2.0 mph 5.0 mph 58% 0.00 in CLR
09:30 73.6 °F 58.4 °F 30.01 in WSW 1.0 mph 4.0 mph 59% 0.00 in CLR
09:45 74.0 °F 59.7 °F 30.02 in WSW 1.0 mph 3.0 mph 61% 0.00 in CLR
10:00 75.0 °F 59.7 °F 30.01 in SSW 3.0 mph 4.0 mph 59% 0.00 in CLR
10:15 75.1 °F 59.8 °F 30.01 in WSW 1.0 mph 3.0 mph 59% 0.00 in FEW
10:30 75.2 °F 58.9 °F 30.00 in West 1.0 mph 4.0 mph 57% 0.00 in FEW
10:45 77.5 °F 60.5 °F 30.00 in SSW 1.0 mph 4.0 mph 56% 0.00 in FEW
11:00 78.5 °F 59.9 °F 30.00 in WSW 1.0 mph 6.0 mph 53% 0.00 in FEW
11:15 78.7 °F 59.0 °F 30.00 in SW 2.0 mph 8.0 mph 51% 0.00 in CLR
11:30 79.5 °F 60.3 °F 30.00 in SSW 3.0 mph 9.0 mph 52% 0.00 in CLR
11:45 79.2 °F 60.1 °F 30.00 in SSW 3.0 mph 10.0 mph 52% 0.00 in CLR
12:00 79.3 °F 59.0 °F 30.00 in SW 3.0 mph 10.0 mph 50% 0.00 in CLR
12:15 80.2 °F 58.7 °F 30.00 in South 5.0 mph 10.0 mph 48% 0.00 in CLR
12:30 81.1 °F 58.4 °F 30.00 in SSW 3.0 mph 12.0 mph 46% 0.00 in CLR
12:45 81.4 °F 59.3 °F 29.99 in SSW 3.0 mph 13.0 mph 47% 0.00 in CLR
13:00 82.3 °F 59.4 °F 29.99 in SW 3.0 mph 12.0 mph 46% 0.00 in CLR
13:15 82.5 °F 59.1 °F 29.98 in SW 5.0 mph 12.0 mph 45% 0.00 in FEW
13:30 82.5 °F 59.6 °F 29.98 in SSW 3.0 mph 15.0 mph 46% 0.00 in FEW
13:45 83.0 °F 60.1 °F 29.98 in SW 7.0 mph 12.0 mph 46% 0.00 in FEW
14:00 82.7 °F 60.4 °F 29.97 in SSW 6.0 mph 16.0 mph 47% 0.00 in FEW
14:15 83.6 °F 60.0 °F 29.96 in SW 7.0 mph 13.0 mph 45% 0.00 in FEW
14:30 83.5 °F 59.9 °F 29.96 in SW 3.0 mph 14.0 mph 45% 0.00 in FEW
14:45 83.8 °F 60.2 °F 29.96 in SW 6.0 mph 14.0 mph 45% 0.00 in FEW
15:00 84.7 °F 61.0 °F 29.95 in SSW 6.0 mph 13.0 mph 45% 0.00 in FEW
15:15 84.8 °F 59.8 °F 29.96 in SSW 7.0 mph 16.0 mph 43% 0.00 in SCT
15:30 83.6 °F 60.7 °F 29.95 in SW 3.0 mph 15.0 mph 46% 0.00 in SCT
15:45 84.0 °F 61.6 °F 29.95 in SSW 3.0 mph 13.0 mph 47% 0.00 in SCT
16:00 83.7 °F 61.4 °F 29.94 in SSW 2.0 mph 12.0 mph 47% 0.00 in SCT
16:15 84.2 °F 60.6 °F 29.94 in SW 3.0 mph 14.0 mph 45% 0.00 in BKN
16:30 84.6 °F 60.9 °F 29.94 in WSW 5.0 mph 15.0 mph 45% 0.00 in BKN
16:45 85.2 °F 60.8 °F 29.94 in SSW 2.0 mph 13.0 mph 44% 0.00 in BKN
17:00 85.2 °F 60.9 °F 29.93 in SSW 3.0 mph 14.0 mph 44% 0.00 in BKN
17:15 85.1 °F 61.4 °F 29.93 in SSW 5.0 mph 14.0 mph 45% 0.00 in BKN
17:30 85.0 °F 60.6 °F 29.93 in SSW 5.0 mph 20.0 mph 44% 0.00 in BKN
17:45 84.8 °F 61.1 °F 29.94 in South 5.0 mph 20.0 mph 45% 0.00 in BKN
18:00 84.8 °F 61.1 °F 29.94 in SW 5.0 mph 13.0 mph 45% 0.00 in BKN
18:15 84.4 °F 61.4 °F 29.93 in SW 2.0 mph 13.0 mph 46% 0.00 in BKN
18:30 84.0 °F 61.0 °F 29.94 in SW 2.0 mph 15.0 mph 46% 0.00 in BKN
19:00 83.8 °F 60.9 °F 29.94 in SW 3.0 mph 12.0 mph 46% 0.00 in BKN
19:15 83.1 °F 60.1 °F 29.95 in SW 2.0 mph 18.0 mph 46% 0.00 in BKN
19:30 82.1 °F 60.5 °F 29.96 in SSW 2.0 mph 8.0 mph 48% 0.00 in BKN
19:45 81.4 °F 60.4 °F 29.97 in SSW 2.0 mph 9.0 mph 49% 0.00 in BKN
20:00 81.0 °F 60.0 °F 29.97 in SW 5.0 mph 11.0 mph 49% 0.00 in BKN
20:15 80.7 °F 59.7 °F 29.97 in SSW 3.0 mph 12.0 mph 49% 0.00 in SCT
20:30 80.1 °F 59.8 °F 29.98 in SSW 3.0 mph 7.0 mph 50% 0.00 in SCT
20:45 79.8 °F 60.1 °F 29.98 in SSW 2.0 mph 7.0 mph 51% 0.00 in SCT
21:00 79.5 °F 59.8 °F 29.99 in South 2.0 mph 9.0 mph 51% 0.00 in SCT
21:15 79.1 °F 59.9 °F 29.99 in SSW 3.0 mph 7.0 mph 52% 0.00 in FEW
21:30 78.9 °F 59.8 °F 30.00 in SW 3.0 mph 9.0 mph 52% 0.00 in FEW
21:45 78.6 °F 60.0 °F 30.00 in South 3.0 mph 9.0 mph 53% 0.00 in FEW
22:00 78.3 °F 60.2 °F 30.01 in SSW 2.0 mph 8.0 mph 54% 0.00 in FEW
22:15 77.8 °F 60.4 °F 30.01 in SSW 2.0 mph 8.0 mph 55% 0.00 in FEW
22:30 77.3 °F 60.4 °F 30.02 in South 1.0 mph 6.0 mph 56% 0.00 in FEW
22:45 77.0 °F 60.6 °F 30.02 in Calm   6.0 mph 57% 0.00 in FEW
23:00 76.8 °F 60.9 °F 30.02 in South 2.0 mph 7.0 mph 58% 0.00 in FEW
23:15 76.5 °F 60.6 °F 30.02 in South 1.0 mph 7.0 mph 58% 0.00 in CLR
23:30 75.8 °F 60.4 °F 30.02 in SSW 1.0 mph 6.0 mph 59% 0.00 in CLR
23:45 75.6 °F 60.3 °F 30.02 in SSW 1.0 mph 8.0 mph 59% 0.00 in CLR
TarryTown NY Weather
Compliments of Weather Underground - 1.5 mb